Main page
METAR-TAF:

METAR-TAF

Airports :

Baia Mare, Romania

Baia Mare Airport

latitude: 47-40N, longitude: 023-35E, elevation: 218 m

Current weather observation

The report was made 33 minutes ago, at 21:00 UTC
Wind 3 kt from the Northeast
Temperature -3°C
Humidity 86%
Pressure 1035 hPa
Visibility: 5000 m
mist

METAR: LRBM 212100Z AUTO 05003KT 5000 BR BKN026/// M03/M05 Q1035

Time: 23:33 (21:33 UTC)

Forecast

The report was made 7 hours and 33 minutes ago, at 14:00 UTC
Forecast valid from 21 at 15 UTC to 21 at 24 UTC
Wind 4 kt from variable directions
Visibility: 7000 m
Broken clouds at a height of 3500 ft
Becoming
from 21 at 16 UTC to 21 at 18 UTC
Visibility: 3000 m
mist
Becoming
from 21 at 18 UTC to 21 at 20 UTC
Visibility: 0800 m
freezing fog
Temporary
from 21 at 20 UTC to 21 at 24 UTC
Visibility: 0350 m
at a height of 100 ft
freezing fog

TAF: LRBM 211400Z 2115/2124 VRB04KT 7000 BKN035 BECMG 2116/2118 3000 BR BECMG 2118/2120 0800 FZFG TEMPO 2120/2124 0350 FZFG VV001

Weather observations and forecasts of more than 4000 airports (METAR and TAF reports).

The available stations are represented by yellow and red dots on the map.

Hover mouse over dot to see the name of the station.

Then click to see weather observations and forecasts.

To change the map : click on the green buttons with a black cross to zoom in, on the green button with a dash to zoom out, or on the green arrows for adjacent maps.


METAR-TAF: